createdAt,value
2023-01-28T00:00:19.863Z,0.00
2023-01-28T00:05:19.783Z,0.00
2023-01-28T00:10:19.736Z,0.00
2023-01-28T00:15:19.658Z,0.00
2023-01-28T00:20:19.611Z,0.00
2023-01-28T00:25:19.533Z,0.00
2023-01-28T00:30:19.482Z,0.00
2023-01-28T00:35:19.418Z,0.00
2023-01-28T00:40:19.347Z,0.00
2023-01-28T00:45:19.278Z,0.00
2023-01-28T00:50:19.217Z,0.00
2023-01-28T00:55:19.147Z,0.00
2023-01-28T01:00:19.095Z,0.00
2023-01-28T01:05:19.016Z,0.00
2023-01-28T01:10:18.980Z,0.00
2023-01-28T01:15:18.889Z,0.00
2023-01-28T01:20:18.866Z,0.00
2023-01-28T01:25:18.759Z,0.00
2023-01-28T01:30:18.725Z,0.00
2023-01-28T01:35:18.850Z,0.00
2023-01-28T01:40:18.600Z,0.00
2023-01-28T01:45:18.517Z,0.00
2023-01-28T01:50:18.448Z,0.00
2023-01-28T01:55:18.384Z,0.00
2023-01-28T02:00:18.322Z,0.00
2023-01-28T02:05:18.549Z,0.00
2023-01-28T02:10:18.201Z,0.00
2023-01-28T02:15:18.290Z,0.00
2023-01-28T02:20:18.069Z,0.00
2023-01-28T02:25:17.992Z,0.00
2023-01-28T02:30:17.946Z,0.00
2023-01-28T02:35:17.866Z,0.00
2023-01-28T02:40:17.811Z,0.00
2023-01-28T02:45:17.739Z,0.00
2023-01-28T02:50:17.682Z,0.00
2023-01-28T02:55:17.733Z,0.00
2023-01-28T03:00:17.571Z,0.00
2023-01-28T03:05:17.482Z,0.00
2023-01-28T03:10:17.425Z,0.00
2023-01-28T03:15:17.621Z,0.00
2023-01-28T03:20:17.304Z,0.00
2023-01-28T03:25:17.324Z,0.00
2023-01-28T03:30:17.174Z,0.00
2023-01-28T03:35:17.356Z,0.00
2023-01-28T03:40:17.042Z,0.00
2023-01-28T03:45:17.446Z,0.00
2023-01-28T03:50:16.913Z,0.00
2023-01-28T03:55:17.169Z,0.00
2023-01-28T04:00:16.786Z,0.00
2023-01-28T04:05:17.099Z,0.00
2023-01-28T04:10:16.659Z,0.00
2023-01-28T04:15:17.180Z,0.00
2023-01-28T04:20:16.532Z,0.00
2023-01-28T04:25:16.869Z,0.00
2023-01-28T04:30:16.416Z,0.00
2023-01-28T04:35:16.743Z,0.00
2023-01-28T04:40:16.272Z,0.00
2023-01-28T04:45:16.622Z,0.00
2023-01-28T04:50:16.144Z,0.00
2023-01-28T04:55:16.426Z,0.00
2023-01-28T05:00:16.028Z,0.00
2023-01-28T05:05:16.297Z,0.00
2023-01-28T05:10:15.903Z,0.00
2023-01-28T05:15:16.210Z,0.00
2023-01-28T05:20:15.779Z,0.00
2023-01-28T05:25:16.091Z,0.00
2023-01-28T05:30:16.032Z,0.00
2023-01-28T05:35:15.849Z,0.00
2023-01-28T05:40:15.984Z,0.00
2023-01-28T05:45:15.760Z,0.00
2023-01-28T05:50:15.933Z,0.00
2023-01-28T05:55:15.345Z,0.00
2023-01-28T06:00:15.655Z,0.00
2023-01-28T06:05:15.266Z,0.00
2023-01-28T06:10:15.611Z,0.00
2023-01-28T06:15:15.113Z,0.00
2023-01-28T06:20:15.455Z,0.00
2023-01-28T06:25:14.934Z,0.00
2023-01-28T06:30:15.346Z,4.00
2023-01-28T06:35:14.808Z,8.00
2023-01-28T06:40:15.140Z,16.00
2023-01-28T06:45:14.678Z,32.00
2023-01-28T06:50:15.047Z,48.00
2023-01-28T06:55:14.550Z,76.00
2023-01-28T07:00:14.934Z,96.00
2023-01-28T07:05:14.429Z,132.00
2023-01-28T07:10:14.818Z,156.00
2023-01-28T07:15:14.292Z,192.00
2023-01-28T07:20:14.600Z,256.00
2023-01-28T07:25:14.227Z,296.00
2023-01-28T07:30:14.706Z,348.00
2023-01-28T07:35:14.040Z,380.00
2023-01-28T07:40:14.438Z,412.00
2023-01-28T07:45:13.907Z,476.00
2023-01-28T07:50:14.134Z,572.00
2023-01-28T07:55:13.780Z,620.00
2023-01-28T08:00:13.970Z,648.00
2023-01-28T08:05:13.773Z,696.00
2023-01-28T08:10:14.072Z,692.00
2023-01-28T08:15:13.527Z,852.00
2023-01-28T08:20:13.666Z,992.00
2023-01-28T08:25:13.419Z,1192.00
2023-01-28T08:30:13.641Z,1300.00
2023-01-28T08:35:13.281Z,1356.00
2023-01-28T08:40:13.772Z,1324.00
2023-01-28T08:45:13.151Z,1536.00
2023-01-28T08:50:13.380Z,1752.00
2023-01-28T08:55:13.038Z,2040.00
2023-01-28T09:00:13.387Z,2292.00
2023-01-28T09:05:12.893Z,2560.00
2023-01-28T09:10:13.115Z,2748.00
2023-01-28T09:15:12.767Z,2748.00
2023-01-28T09:20:12.684Z,3204.00
2023-01-28T09:25:12.630Z,3292.00
2023-01-28T09:30:12.557Z,3024.00
2023-01-28T09:35:12.503Z,2892.00
2023-01-28T09:40:12.720Z,2628.00
2023-01-28T09:45:12.387Z,2676.00
2023-01-28T09:50:12.339Z,2488.00
2023-01-28T09:55:12.259Z,2544.00
2023-01-28T10:00:14.581Z,2632.00
2023-01-28T10:05:12.144Z,2804.00
2023-01-28T10:10:12.044Z,2608.00
2023-01-28T10:15:12.015Z,2772.00
2023-01-28T10:20:11.940Z,2976.00
2023-01-28T10:25:11.876Z,3048.00
2023-01-28T10:30:11.788Z,2912.00
2023-01-28T10:35:11.759Z,2988.00
2023-01-28T10:40:11.662Z,3440.00
2023-01-28T10:45:11.614Z,4104.00
2023-01-28T10:50:11.541Z,4140.00
2023-01-28T10:55:11.487Z,3752.00
2023-01-28T11:00:11.405Z,3568.00
2023-01-28T11:05:11.360Z,3488.00
2023-01-28T11:10:11.276Z,3296.00
2023-01-28T11:15:11.218Z,3004.00
2023-01-28T11:20:11.217Z,3116.00
2023-01-28T11:25:11.090Z,3236.00
2023-01-28T11:30:11.018Z,3172.00
2023-01-28T11:35:12.581Z,3240.00
2023-01-28T11:40:10.890Z,3332.00
2023-01-28T11:45:10.833Z,3312.00
2023-01-28T11:50:10.761Z,3084.00
2023-01-28T11:55:10.715Z,2868.00
2023-01-28T12:00:12.190Z,2776.00
2023-01-28T12:05:10.588Z,2700.00
2023-01-28T12:10:10.518Z,2836.00
2023-01-28T12:15:10.473Z,2812.00
2023-01-28T12:20:10.381Z,2760.00
2023-01-28T12:25:10.346Z,2596.00
2023-01-28T12:30:10.251Z,2460.00
2023-01-28T12:35:10.193Z,2196.00
2023-01-28T12:40:10.121Z,2032.00
2023-01-28T12:45:10.064Z,1908.00
2023-01-28T12:50:09.998Z,1960.00
2023-01-28T12:55:09.936Z,2028.00
2023-01-28T13:00:09.870Z,2196.00
2023-01-28T13:05:09.810Z,2220.00
2023-01-28T13:10:09.735Z,2468.00
2023-01-28T13:15:09.680Z,2348.00
2023-01-28T13:20:09.631Z,2140.00
2023-01-28T13:25:09.549Z,2024.00
2023-01-28T13:30:09.483Z,1640.00
2023-01-28T13:35:09.422Z,1736.00
2023-01-28T13:40:09.427Z,1548.00
2023-01-28T13:45:09.293Z,1428.00
2023-01-28T13:50:09.261Z,1508.00
2023-01-28T13:55:09.165Z,1516.00
2023-01-28T14:00:09.227Z,1552.00
2023-01-28T14:05:09.036Z,1404.00
2023-01-28T14:10:09.118Z,1256.00
2023-01-28T14:15:08.905Z,1336.00
2023-01-28T14:20:08.861Z,1084.00
2023-01-28T14:25:08.781Z,1000.00
2023-01-28T14:30:08.720Z,1120.00
2023-01-28T14:35:08.665Z,1116.00
2023-01-28T14:40:08.590Z,1112.00
2023-01-28T14:45:08.523Z,1172.00
2023-01-28T14:50:08.451Z,1292.00
2023-01-28T14:55:08.407Z,1264.00
2023-01-28T15:00:08.322Z,1160.00
2023-01-28T15:05:08.268Z,1060.00
2023-01-28T15:10:08.207Z,1024.00
2023-01-28T15:15:08.143Z,1016.00
2023-01-28T15:20:08.081Z,932.00
2023-01-28T15:25:08.009Z,840.00
2023-01-28T15:30:07.948Z,740.00
2023-01-28T15:35:07.890Z,624.00
2023-01-28T15:40:07.827Z,432.00
2023-01-28T15:45:07.753Z,280.00
2023-01-28T15:50:07.686Z,208.00
2023-01-28T15:55:07.633Z,136.00
2023-01-28T16:00:07.560Z,88.00
2023-01-28T16:05:07.500Z,44.00
2023-01-28T16:10:07.428Z,20.00
2023-01-28T16:15:07.383Z,8.00
2023-01-28T16:20:07.306Z,4.00
2023-01-28T16:25:07.248Z,4.00
2023-01-28T16:30:07.183Z,0.00
2023-01-28T16:35:07.119Z,0.00
2023-01-28T16:40:07.061Z,0.00
2023-01-28T16:45:06.994Z,0.00
2023-01-28T16:50:06.933Z,0.00
2023-01-28T16:55:06.862Z,0.00
2023-01-28T17:00:06.806Z,0.00
2023-01-28T17:05:06.740Z,0.00
2023-01-28T17:10:06.677Z,0.00
2023-01-28T17:15:06.617Z,0.00
2023-01-28T17:20:06.547Z,0.00
2023-01-28T17:25:06.488Z,0.00
2023-01-28T17:30:06.416Z,0.00
2023-01-28T17:35:06.376Z,0.00
2023-01-28T17:40:06.299Z,0.00
2023-01-28T17:45:06.229Z,0.00
2023-01-28T17:50:06.181Z,0.00
2023-01-28T17:55:06.102Z,0.00
2023-01-28T18:00:06.047Z,0.00
2023-01-28T18:05:05.973Z,0.00
2023-01-28T18:10:05.920Z,0.00
2023-01-28T18:15:05.849Z,0.00
2023-01-28T18:20:05.796Z,0.00
2023-01-28T18:25:05.722Z,0.00
2023-01-28T18:30:05.653Z,0.00
2023-01-28T18:35:05.602Z,0.00
2023-01-28T18:40:05.523Z,0.00
2023-01-28T18:45:05.476Z,0.00
2023-01-28T18:50:05.407Z,0.00
2023-01-28T18:55:05.389Z,0.00
2023-01-28T19:00:05.272Z,0.00
2023-01-28T19:05:05.224Z,0.00
2023-01-28T19:10:05.143Z,0.00
2023-01-28T19:15:05.085Z,0.00
2023-01-28T19:20:05.015Z,0.00
2023-01-28T19:25:04.966Z,0.00
2023-01-28T19:30:04.888Z,0.00
2023-01-28T19:35:04.840Z,0.00
2023-01-28T19:40:04.760Z,0.00
2023-01-28T19:45:04.705Z,0.00
2023-01-28T19:50:04.633Z,0.00
2023-01-28T19:55:04.585Z,0.00
2023-01-28T20:00:04.514Z,0.00
2023-01-28T20:05:04.462Z,0.00
2023-01-28T20:10:04.381Z,0.00
2023-01-28T20:15:04.334Z,0.00
2023-01-28T20:20:04.254Z,0.00
2023-01-28T20:25:04.208Z,0.00
2023-01-28T20:30:04.125Z,0.00
2023-01-28T20:35:04.069Z,0.00
2023-01-28T20:40:03.999Z,0.00
2023-01-28T20:45:03.963Z,0.00
2023-01-28T20:50:03.890Z,0.00
2023-01-28T20:55:03.820Z,0.00
2023-01-28T21:00:03.744Z,0.00
2023-01-28T21:05:03.705Z,0.00
2023-01-28T21:10:03.616Z,0.00
2023-01-28T21:15:03.562Z,0.00
2023-01-28T21:20:03.491Z,0.00
2023-01-28T21:25:05.423Z,0.00
2023-01-28T21:30:03.364Z,0.00
2023-01-28T21:35:03.312Z,0.00
2023-01-28T21:40:03.237Z,0.00
2023-01-28T21:45:03.181Z,0.00
2023-01-28T21:50:03.110Z,0.00
2023-01-28T21:55:03.064Z,0.00
2023-01-28T22:00:02.984Z,0.00
2023-01-28T22:05:02.957Z,0.00
2023-01-28T22:10:02.858Z,0.00
2023-01-28T22:15:02.810Z,0.00
2023-01-28T22:20:02.730Z,0.00
2023-01-28T22:25:02.691Z,0.00
2023-01-28T22:30:02.599Z,0.00
2023-01-28T22:35:02.545Z,0.00
2023-01-28T22:40:02.473Z,0.00
2023-01-28T22:45:02.416Z,0.00
2023-01-28T22:50:02.342Z,0.00
2023-01-28T22:55:02.284Z,0.00
2023-01-28T23:00:02.227Z,0.00
2023-01-28T23:05:02.162Z,0.00
2023-01-28T23:10:02.086Z,0.00
2023-01-28T23:15:02.038Z,0.00
2023-01-28T23:20:01.963Z,0.00
2023-01-28T23:25:01.916Z,0.00
2023-01-28T23:30:01.826Z,0.00
2023-01-28T23:35:01.774Z,0.00
2023-01-28T23:40:01.692Z,0.00
2023-01-28T23:45:01.652Z,0.00
2023-01-28T23:50:01.597Z,0.00
2023-01-28T23:55:01.553Z,0.00
